Time;durP1;ratioP1;P1;durP2;ratioP2;P2;SDS_P1;SDS_P2;PMS_P1;PMS_P2;Temp;Humidity;BMP_temperature;BMP_pressure;BME280_temperature;BME280_humidity;BME280_pressure;Samples;Min_cycle;Max_cycle;Signal;HPM_P1;HPM_P2
2021/05/08 00:00:32;;;;;;;38.63;21.98;;;3.80;99.90;;;;;;5081683;28;20024;-53
2021/05/08 00:02:58;;;;;;;32.90;19.50;;;3.80;99.90;;;;;;5086655;28;20036;-55
2021/05/08 00:05:23;;;;;;;38.05;20.45;;;3.80;99.90;;;;;;5079283;28;20034;-54
2021/05/08 00:07:49;;;;;;;37.35;20.52;;;3.80;99.90;;;;;;5084095;28;20034;-56
2021/05/08 00:10:16;;;;;;;39.30;20.80;;;3.70;99.90;;;;;;5080144;28;20024;-55
2021/05/08 00:12:43;;;;;;;36.58;20.27;;;3.70;99.90;;;;;;5084487;28;20381;-56
2021/05/08 00:15:10;;;;;;;37.85;20.08;;;3.70;99.90;;;;;;5079633;28;21642;-56
2021/05/08 00:17:36;;;;;;;40.63;21.55;;;3.60;99.90;;;;;;5076982;28;20033;-57
2021/05/08 00:20:05;;;;;;;40.92;22.05;;;3.60;99.90;;;;;;5080834;28;20059;-56
2021/05/08 00:22:31;;;;;;;43.35;20.73;;;3.60;99.90;;;;;;5077001;28;21027;-55
2021/05/08 00:24:56;;;;;;;40.45;21.77;;;3.60;99.90;;;;;;5079237;28;20123;-56
2021/05/08 00:27:22;;;;;;;42.38;21.30;;;3.50;99.90;;;;;;5083667;28;20023;-55
2021/05/08 00:29:47;;;;;;;39.45;24.33;;;3.50;99.90;;;;;;5082575;28;20102;-56
2021/05/08 00:32:13;;;;;;;38.03;21.05;;;3.40;99.90;;;;;;5080237;28;20059;-54
2021/05/08 00:34:38;;;;;;;43.30;21.70;;;3.40;99.90;;;;;;5083825;28;20056;-55
2021/05/08 00:37:04;;;;;;;34.97;21.95;;;3.40;99.90;;;;;;5084938;28;20029;-56
2021/05/08 00:39:29;;;;;;;39.88;22.17;;;3.30;99.90;;;;;;5082761;28;20032;-54
2021/05/08 00:41:55;;;;;;;35.42;21.00;;;3.40;99.90;;;;;;5082868;28;20107;-56
2021/05/08 00:44:21;;;;;;;39.25;21.77;;;3.30;99.90;;;;;;5082097;28;20098;-55
2021/05/08 00:46:46;;;;;;;47.63;23.50;;;3.30;99.90;;;;;;5085249;28;20031;-55
2021/05/08 00:49:13;;;;;;;38.67;22.42;;;3.30;99.90;;;;;;5078354;28;20444;-54
2021/05/08 00:51:38;;;;;;;44.17;22.30;;;3.30;99.90;;;;;;5080234;28;20035;-55
2021/05/08 00:54:04;;;;;;;47.88;24.10;;;3.30;99.90;;;;;;5077766;28;20028;-54
2021/05/08 00:56:30;;;;;;;46.75;24.40;;;3.30;99.90;;;;;;5080371;28;20052;-56
2021/05/08 00:58:56;;;;;;;42.20;24.60;;;3.30;99.90;;;;;;5083930;28;20040;-54
2021/05/08 01:01:22;;;;;;;45.53;23.52;;;3.30;99.90;;;;;;5088256;28;20032;-55
2021/05/08 01:03:49;;;;;;;43.42;21.88;;;3.30;99.90;;;;;;5085548;28;20512;-56
2021/05/08 01:06:15;;;;;;;43.58;23.23;;;3.30;99.90;;;;;;5082075;28;20037;-55
2021/05/08 01:08:41;;;;;;;39.63;23.90;;;3.40;99.90;;;;;;5082175;28;20050;-55
2021/05/08 01:11:07;;;;;;;39.97;21.27;;;3.50;99.90;;;;;;5081990;28;20545;-55
2021/05/08 01:13:33;;;;;;;40.15;21.35;;;3.60;99.90;;;;;;5087673;28;20054;-56
2021/05/08 01:15:59;;;;;;;46.00;21.48;;;3.50;99.90;;;;;;5084358;28;20123;-54
2021/05/08 01:18:25;;;;;;;43.92;22.90;;;3.50;99.90;;;;;;5079817;28;20024;-56
2021/05/08 01:20:51;;;;;;;43.42;21.52;;;3.50;99.90;;;;;;5081907;28;20028;-56
2021/05/08 01:23:17;;;;;;;40.92;22.80;;;3.40;99.90;;;;;;5086961;28;20024;-56
2021/05/08 01:25:43;;;;;;;36.63;21.38;;;3.40;99.90;;;;;;5085584;28;20015;-56
2021/05/08 01:28:09;;;;;;;37.78;20.65;;;3.40;99.90;;;;;;5079537;28;20434;-56
2021/05/08 01:30:36;;;;;;;37.90;20.70;;;3.40;99.90;;;;;;5084366;28;20119;-56
2021/05/08 01:33:03;;;;;;;42.17;20.83;;;3.40;99.90;;;;;;5082252;28;20107;-56
2021/05/08 01:35:30;;;;;;;42.28;21.55;;;3.40;99.90;;;;;;5081222;28;20032;-54
2021/05/08 01:37:56;;;;;;;36.45;20.40;;;3.40;99.90;;;;;;5083844;28;20035;-55
2021/05/08 01:40:30;;;;;;;53.13;22.75;;;3.40;99.90;;;;;;5082286;28;20039;-57
2021/05/08 01:42:56;;;;;;;35.33;20.20;;;3.40;99.90;;;;;;5083407;28;20390;-56
2021/05/08 01:45:23;;;;;;;37.15;19.90;;;3.30;99.90;;;;;;5083164;28;20095;-57
2021/05/08 01:47:49;;;;;;;38.15;18.98;;;3.20;99.90;;;;;;5085035;28;20030;-55
2021/05/08 01:50:17;;;;;;;39.25;20.60;;;3.20;99.90;;;;;;5087518;28;20032;-56
2021/05/08 01:52:43;;;;;;;39.08;20.70;;;3.10;99.90;;;;;;5084366;28;20036;-55
2021/05/08 01:55:12;;;;;;;38.65;22.00;;;3.00;99.90;;;;;;5084022;28;20102;-55
2021/05/08 01:57:56;;;;;;;40.17;21.20;;;3.00;99.90;;;;;;5084601;28;20076;-54
2021/05/08 02:00:42;;;;;;;44.70;22.70;;;2.90;99.90;;;;;;5082243;28;20568;-56
2021/05/08 02:03:08;;;;;;;41.95;22.40;;;2.90;99.90;;;;;;5078168;28;20490;-56
2021/05/08 02:05:35;;;;;;;43.67;23.95;;;2.90;99.90;;;;;;5080586;28;20107;-56
2021/05/08 02:08:03;;;;;;;43.65;23.40;;;2.90;99.90;;;;;;5081475;28;20099;-56
2021/05/08 02:10:33;;;;;;;40.17;21.15;;;2.90;99.90;;;;;;5081481;28;20043;-55
2021/05/08 02:13:00;;;;;;;41.03;21.30;;;2.90;99.90;;;;;;5082974;28;20539;-56
2021/05/08 02:15:26;;;;;;;44.55;21.60;;;2.90;99.90;;;;;;5086965;28;20090;-57
2021/05/08 02:17:52;;;;;;;38.58;22.30;;;2.80;99.90;;;;;;5087521;28;20483;-55
2021/05/08 02:20:22;;;;;;;40.50;22.40;;;2.80;99.90;;;;;;5080772;28;20029;-56
2021/05/08 02:22:47;;;;;;;45.92;22.25;;;2.80;99.90;;;;;;5075471;28;20402;-56
2021/05/08 02:25:13;;;;;;;48.17;21.17;;;2.80;99.90;;;;;;5077400;28;20032;-56
2021/05/08 02:27:40;;;;;;;46.90;22.45;;;2.90;99.90;;;;;;5079651;28;20031;-53
2021/05/08 02:30:11;;;;;;;38.55;22.17;;;2.80;99.90;;;;;;5074009;28;20025;-56
2021/05/08 02:32:37;;;;;;;38.42;20.52;;;2.70;99.90;;;;;;5083676;28;20577;-56
2021/05/08 02:35:04;;;;;;;37.80;19.25;;;2.50;99.90;;;;;;5078286;28;20103;-55
2021/05/08 02:37:30;;;;;;;36.60;21.15;;;2.50;99.90;;;;;;5080982;28;20055;-56
2021/05/08 02:39:55;;;;;;;38.67;21.58;;;2.50;99.90;;;;;;5076505;28;20052;-57
2021/05/08 02:42:21;;;;;;;37.53;19.98;;;2.50;99.90;;;;;;5077436;28;20494;-54
2021/05/08 02:44:46;;;;;;;41.55;19.50;;;2.50;99.90;;;;;;5075747;28;20052;-55
2021/05/08 02:47:19;;;;;;;32.88;19.85;;;2.50;99.90;;;;;;5084748;28;20048;-54
2021/05/08 02:49:46;;;;;;;32.97;18.33;;;2.50;99.90;;;;;;5084335;28;20032;-57
2021/05/08 02:52:12;;;;;;;37.38;19.13;;;2.50;99.90;;;;;;5075005;28;20036;-57
2021/05/08 02:54:37;;;;;;;32.35;18.98;;;2.60;99.90;;;;;;5079260;28;20475;-55
2021/05/08 02:57:03;;;;;;;31.90;18.27;;;2.60;99.90;;;;;;5079852;28;20063;-56
2021/05/08 02:59:29;;;;;;;34.10;18.80;;;2.60;99.90;;;;;;5080649;28;20024;-55
2021/05/08 03:01:54;;;;;;;40.22;20.08;;;2.60;99.90;;;;;;5079745;28;20047;-56
2021/05/08 03:04:20;;;;;;;27.70;18.40;;;2.70;99.90;;;;;;5080400;28;20089;-56
2021/05/08 03:06:46;;;;;;;33.78;18.88;;;2.70;99.90;;;;;;5076672;28;20073;-55
2021/05/08 03:09:11;;;;;;;29.05;17.27;;;2.80;99.90;;;;;;5083508;28;20063;-54
2021/05/08 03:11:36;;;;;;;25.73;16.10;;;2.90;99.90;;;;;;5077405;28;20025;-56
2021/05/08 03:14:02;;;;;;;28.85;17.67;;;2.90;99.90;;;;;;5075991;28;20037;-55
2021/05/08 03:16:29;;;;;;;32.85;17.85;;;3.00;99.90;;;;;;5082827;28;20079;-57
2021/05/08 03:18:55;;;;;;;30.48;16.95;;;3.00;99.90;;;;;;5079892;28;20113;-57
2021/05/08 03:21:20;;;;;;;28.00;16.92;;;3.00;99.90;;;;;;5076029;28;20051;-56
2021/05/08 03:23:46;;;;;;;28.52;16.85;;;3.00;99.90;;;;;;5075623;28;20035;-55
2021/05/08 03:26:11;;;;;;;25.00;17.45;;;3.00;99.90;;;;;;5082203;28;20035;-56
2021/05/08 03:28:37;;;;;;;36.17;16.52;;;3.00;99.90;;;;;;5083221;28;20032;-57
2021/05/08 03:31:02;;;;;;;25.92;16.95;;;3.00;99.90;;;;;;5080177;28;20401;-55
2021/05/08 03:33:28;;;;;;;26.80;17.40;;;3.00;99.90;;;;;;5085276;28;20028;-54
2021/05/08 03:35:53;;;;;;;24.83;16.30;;;3.00;99.90;;;;;;5081272;28;20035;-55
2021/05/08 03:38:19;;;;;;;31.38;18.35;;;3.00;99.90;;;;;;5078881;28;20024;-55
2021/05/08 03:40:44;;;;;;;25.88;16.92;;;3.00;99.90;;;;;;5076252;28;20032;-57
2021/05/08 03:43:10;;;;;;;24.90;16.00;;;3.00;99.90;;;;;;5083299;28;20024;-56
2021/05/08 03:45:35;;;;;;;28.13;17.65;;;3.00;99.90;;;;;;5080332;28;20115;-54
2021/05/08 03:48:01;;;;;;;26.42;15.48;;;3.00;99.90;;;;;;5082823;28;20032;-53
2021/05/08 03:50:27;;;;;;;25.55;17.70;;;3.00;99.90;;;;;;5080054;28;20466;-54
2021/05/08 03:52:52;;;;;;;25.77;16.73;;;3.00;99.90;;;;;;5078705;28;20406;-55
2021/05/08 03:55:18;;;;;;;25.25;15.93;;;3.00;99.90;;;;;;5079783;28;20717;-55
2021/05/08 03:57:44;;;;;;;23.33;16.48;;;3.00;99.90;;;;;;5081552;28;20042;-53
2021/05/08 04:00:10;;;;;;;24.02;15.32;;;3.10;99.90;;;;;;5080269;28;20028;-56
2021/05/08 04:02:36;;;;;;;35.25;19.58;;;3.00;99.90;;;;;;5074267;28;20043;-52
2021/05/08 04:05:01;;;;;;;32.17;16.02;;;3.00;99.90;;;;;;5071382;28;20020;-55
2021/05/08 04:07:27;;;;;;;27.55;15.57;;;3.00;99.90;;;;;;5078472;28;20501;-55
2021/05/08 04:09:52;;;;;;;23.92;15.82;;;3.00;99.90;;;;;;5076569;28;20424;-55
2021/05/08 04:12:18;;;;;;;25.52;16.05;;;3.00;99.90;;;;;;5081228;28;20038;-55
2021/05/08 04:14:44;;;;;;;24.02;15.50;;;3.10;99.90;;;;;;5080481;28;20036;-56
2021/05/08 04:17:09;;;;;;;26.45;16.85;;;3.10;99.90;;;;;;5081261;28;20024;-53
2021/05/08 04:19:35;;;;;;;26.00;16.40;;;3.10;99.90;;;;;;5081097;28;20109;-52
2021/05/08 04:22:00;;;;;;;25.75;15.18;;;3.10;99.90;;;;;;5077903;28;20115;-55
2021/05/08 04:24:26;;;;;;;21.58;15.40;;;3.20;99.90;;;;;;5078353;28;20038;-55
2021/05/08 04:26:51;;;;;;;21.92;15.00;;;3.20;99.90;;;;;;5077984;28;20020;-55
2021/05/08 04:29:18;;;;;;;23.58;14.68;;;3.20;99.90;;;;;;5077108;28;20055;-54
2021/05/08 04:31:44;;;;;;;24.30;14.75;;;3.20;99.90;;;;;;5080034;28;20036;-56
2021/05/08 04:34:09;;;;;;;22.95;15.02;;;3.20;99.90;;;;;;5079464;28;20042;-56
2021/05/08 04:36:35;;;;;;;24.55;15.80;;;3.30;99.90;;;;;;5079833;28;20448;-57
2021/05/08 04:39:00;;;;;;;30.42;16.25;;;3.30;99.90;;;;;;5077501;28;20032;-55
2021/05/08 04:41:26;;;;;;;20.35;14.95;;;3.40;99.90;;;;;;5074939;28;20382;-55
2021/05/08 04:43:51;;;;;;;19.77;13.80;;;3.50;99.90;;;;;;5071501;28;20028;-55
2021/05/08 04:46:17;;;;;;;27.65;15.77;;;3.50;99.90;;;;;;5082031;28;20024;-54
2021/05/08 04:48:42;;;;;;;22.80;14.80;;;3.50;99.90;;;;;;5078222;28;20132;-54
2021/05/08 04:51:08;;;;;;;27.88;14.63;;;3.60;99.90;;;;;;5076629;28;20032;-54
2021/05/08 04:53:33;;;;;;;21.75;14.73;;;3.70;99.90;;;;;;5076487;28;20109;-55
2021/05/08 04:55:59;;;;;;;20.63;13.75;;;3.70;99.90;;;;;;5076661;28;20028;-54
2021/05/08 04:58:25;;;;;;;24.77;13.45;;;3.80;99.90;;;;;;5073948;28;20033;-56
2021/05/08 05:00:50;;;;;;;18.73;13.43;;;3.80;99.90;;;;;;5082739;28;20027;-56
2021/05/08 05:03:16;;;;;;;22.80;14.15;;;3.90;99.90;;;;;;5078274;28;20510;-55
2021/05/08 05:05:41;;;;;;;24.00;13.65;;;3.90;99.90;;;;;;5073779;28;20020;-55
2021/05/08 05:08:07;;;;;;;20.52;13.15;;;4.00;99.90;;;;;;5077995;28;20541;-57
2021/05/08 05:10:33;;;;;;;19.88;14.27;;;4.00;99.90;;;;;;5077952;28;20066;-57
2021/05/08 05:13:00;;;;;;;18.13;12.25;;;4.10;99.90;;;;;;5078634;28;20056;-57
2021/05/08 05:15:26;;;;;;;17.75;12.45;;;4.10;99.90;;;;;;5077008;28;20056;-58
2021/05/08 05:17:53;;;;;;;20.30;11.15;;;4.20;99.90;;;;;;5082926;28;20486;-57
2021/05/08 05:20:19;;;;;;;18.00;12.00;;;4.30;99.90;;;;;;5077742;28;20406;-57
2021/05/08 05:22:45;;;;;;;19.60;12.55;;;4.40;99.90;;;;;;5080973;28;20035;-56
2021/05/08 05:25:11;;;;;;;18.20;11.93;;;4.50;99.90;;;;;;5077313;28;20025;-57
2021/05/08 05:27:36;;;;;;;18.45;12.65;;;4.50;99.90;;;;;;5078954;28;20024;-58
2021/05/08 05:30:02;;;;;;;21.63;11.85;;;4.60;99.90;;;;;;5075469;28;20020;-57
2021/05/08 05:32:28;;;;;;;15.75;11.15;;;4.70;99.90;;;;;;5098352;22;20814;-50
2021/05/08 05:34:53;;;;;;;16.73;10.77;;;4.80;99.90;;;;;;5081208;28;20077;-53
2021/05/08 05:37:19;;;;;;;19.77;12.15;;;4.90;99.90;;;;;;5086902;28;20021;-50
2021/05/08 05:39:45;;;;;;;16.00;11.65;;;5.00;99.90;;;;;;5089601;28;20031;-50
2021/05/08 05:42:10;;;;;;;16.73;10.77;;;5.10;99.90;;;;;;5090021;28;20545;-49
2021/05/08 05:44:36;;;;;;;13.70;10.10;;;5.20;99.90;;;;;;5092656;28;20528;-50
2021/05/08 05:47:01;;;;;;;15.85;10.32;;;5.30;99.90;;;;;;5092360;28;20040;-53
2021/05/08 05:49:27;;;;;;;15.15;10.23;;;5.50;99.90;;;;;;5091273;28;20020;-50
2021/05/08 05:51:52;;;;;;;13.77;9.68;;;5.60;99.90;;;;;;5094152;28;20378;-52
2021/05/08 05:54:18;;;;;;;16.80;10.43;;;5.70;99.90;;;;;;5093071;28;20777;-53
2021/05/08 05:56:43;;;;;;;17.95;10.13;;;5.80;99.90;;;;;;5093901;28;20500;-50
2021/05/08 05:59:09;;;;;;;13.45;9.07;;;5.90;99.90;;;;;;5091815;28;20027;-52
2021/05/08 06:01:35;;;;;;;18.75;10.35;;;6.00;99.90;;;;;;5092518;28;20028;-54
2021/05/08 06:04:00;;;;;;;13.48;9.38;;;6.10;99.90;;;;;;5090172;28;20020;-51
2021/05/08 06:06:26;;;;;;;19.08;9.70;;;6.20;99.90;;;;;;5093189;28;20020;-52
2021/05/08 06:08:51;;;;;;;9.68;7.65;;;6.30;99.90;;;;;;5092053;28;20486;-54
2021/05/08 06:11:17;;;;;;;12.95;8.57;;;6.30;99.90;;;;;;5091345;28;20366;-53
2021/05/08 06:13:42;;;;;;;12.52;8.25;;;6.40;99.90;;;;;;5092778;28;20035;-53
2021/05/08 06:16:08;;;;;;;13.57;8.73;;;6.50;99.90;;;;;;5093900;28;20040;-54
2021/05/08 06:18:34;;;;;;;14.38;9.10;;;6.60;99.90;;;;;;5092572;28;20461;-54
2021/05/08 06:21:00;;;;;;;12.93;7.80;;;6.70;99.90;;;;;;5092595;28;20060;-55
2021/05/08 06:23:26;;;;;;;11.55;7.80;;;6.80;99.90;;;;;;5095412;28;20062;-51
2021/05/08 06:25:52;;;;;;;13.63;8.50;;;6.90;99.90;;;;;;5092836;28;20727;-51
2021/05/08 06:28:17;;;;;;;14.23;7.82;;;7.10;99.90;;;;;;5093427;28;20082;-52
2021/05/08 06:30:43;;;;;;;13.90;7.32;;;7.20;99.90;;;;;;5092206;28;20032;-55
2021/05/08 06:33:09;;;;;;;11.43;7.72;;;7.40;99.90;;;;;;5094854;28;20506;-55
2021/05/08 06:35:34;;;;;;;11.82;7.60;;;7.70;99.90;;;;;;5091594;28;20067;-53
2021/05/08 06:38:00;;;;;;;10.93;7.80;;;7.90;99.90;;;;;;5093085;28;20178;-52
2021/05/08 06:40:26;;;;;;;12.85;7.45;;;8.00;99.90;;;;;;5092459;28;20115;-54
2021/05/08 06:42:52;;;;;;;10.45;7.07;;;8.20;99.90;;;;;;5091020;28;20025;-54
2021/05/08 06:45:17;;;;;;;12.90;7.53;;;8.30;99.90;;;;;;5087190;28;20051;-57
2021/05/08 06:47:43;;;;;;;11.52;7.63;;;8.40;99.90;;;;;;5090682;28;20031;-52
2021/05/08 06:50:09;;;;;;;11.68;7.65;;;8.50;99.90;;;;;;5091895;28;20052;-56
2021/05/08 06:52:35;;;;;;;10.93;6.68;;;8.60;99.90;;;;;;5091860;28;20035;-53
2021/05/08 06:55:00;;;;;;;12.48;7.20;;;8.70;99.90;;;;;;5090970;28;20028;-54
2021/05/08 06:57:26;;;;;;;12.20;6.60;;;8.80;99.90;;;;;;5091675;28;20024;-52
2021/05/08 06:59:51;;;;;;;11.18;7.25;;;8.90;99.90;;;;;;5092161;28;20482;-54
2021/05/08 07:02:17;;;;;;;9.73;6.63;;;9.10;99.90;;;;;;5091670;28;20413;-55
2021/05/08 07:04:42;;;;;;;11.02;6.47;;;9.30;99.90;;;;;;5091929;28;20397;-51
2021/05/08 07:07:08;;;;;;;11.38;6.72;;;9.50;99.90;;;;;;5092460;28;20409;-51
2021/05/08 07:09:33;;;;;;;10.30;6.18;;;9.70;99.90;;;;;;5091582;28;20028;-55
2021/05/08 07:11:59;;;;;;;10.65;6.53;;;9.80;99.90;;;;;;5091803;28;20036;-52
2021/05/08 07:14:24;;;;;;;11.00;6.32;;;9.90;99.90;;;;;;5092005;28;20024;-51
2021/05/08 07:16:50;;;;;;;11.57;6.18;;;10.00;99.90;;;;;;5090531;28;20500;-55
2021/05/08 07:19:16;;;;;;;9.85;5.53;;;10.00;99.90;;;;;;5081770;28;20032;-51
2021/05/08 07:21:41;;;;;;;7.35;5.22;;;10.10;99.90;;;;;;5091021;28;20028;-51
2021/05/08 07:24:07;;;;;;;11.82;6.55;;;10.10;99.90;;;;;;5091256;28;20543;-55
2021/05/08 07:26:34;;;;;;;10.32;6.93;;;10.20;99.90;;;;;;5091537;28;20057;-54
2021/05/08 07:29:00;;;;;;;12.25;5.78;;;10.30;99.90;;;;;;5091238;28;20039;-52
2021/05/08 07:31:26;;;;;;;13.10;6.28;;;10.30;99.90;;;;;;5090763;28;20067;-56
2021/05/08 07:33:52;;;;;;;10.85;5.18;;;10.40;99.90;;;;;;5091232;28;20032;-53
2021/05/08 07:36:19;;;;;;;9.32;5.40;;;10.50;99.90;;;;;;5091261;28;20161;-53
2021/05/08 07:38:44;;;;;;;8.23;5.75;;;10.60;99.90;;;;;;5091313;28;20028;-52
2021/05/08 07:41:10;;;;;;;8.60;5.55;;;10.70;99.90;;;;;;5090563;28;20110;-56
2021/05/08 07:43:36;;;;;;;8.88;5.15;;;10.80;99.90;;;;;;5089930;28;20103;-55
2021/05/08 07:46:01;;;;;;;8.85;5.60;;;10.90;99.90;;;;;;5091757;28;20031;-53
2021/05/08 07:48:27;;;;;;;10.82;5.82;;;10.90;99.90;;;;;;5090833;28;20028;-53
2021/05/08 07:50:53;;;;;;;7.45;5.07;;;11.10;99.90;;;;;;5088545;28;20118;-52
2021/05/08 07:53:18;;;;;;;11.63;5.40;;;11.20;99.90;;;;;;5090680;28;20452;-53
2021/05/08 07:55:44;;;;;;;12.57;5.13;;;11.40;99.90;;;;;;5088044;28;20043;-55
2021/05/08 07:58:10;;;;;;;13.52;5.20;;;11.50;99.90;;;;;;5089127;28;20035;-53
2021/05/08 08:00:36;;;;;;;6.97;4.40;;;11.60;99.90;;;;;;5089247;28;20051;-53
2021/05/08 08:03:01;;;;;;;7.03;4.18;;;11.70;99.90;;;;;;5070899;28;20016;-52
2021/05/08 08:05:28;;;;;;;8.27;4.65;;;11.80;99.90;;;;;;5085234;28;20043;-55
2021/05/08 08:07:54;;;;;;;8.07;4.82;;;11.90;99.90;;;;;;5081662;28;20024;-52
2021/05/08 08:10:19;;;;;;;11.63;4.63;;;12.00;99.90;;;;;;5090468;28;20024;-52
2021/05/08 08:12:45;;;;;;;6.25;3.75;;;12.10;99.90;;;;;;5090842;28;20416;-56
2021/05/08 08:15:12;;;;;;;7.95;5.00;;;12.30;99.90;;;;;;5088147;28;20031;-55
2021/05/08 08:17:38;;;;;;;8.80;4.63;;;12.30;99.90;;;;;;5089143;28;20027;-55
2021/05/08 08:20:06;;;;;;;10.57;5.30;;;12.40;99.90;;;;;;5089721;28;20020;-53
2021/05/08 08:22:32;;;;;;;6.25;4.35;;;12.50;99.90;;;;;;5089863;28;20517;-54
2021/05/08 08:24:58;;;;;;;9.45;4.47;;;12.60;99.90;;;;;;5090198;28;20028;-56
2021/05/08 08:27:24;;;;;;;10.50;4.20;;;12.70;99.90;;;;;;5090081;28;20065;-56
2021/05/08 08:29:50;;;;;;;7.72;3.85;;;12.80;99.90;;;;;;5089127;28;20035;-53
2021/05/08 08:32:15;;;;;;;11.00;4.25;;;12.90;99.90;;;;;;5089276;28;20036;-52
2021/05/08 08:34:42;;;;;;;6.78;3.38;;;12.90;99.90;;;;;;5088530;28;20055;-56
2021/05/08 08:37:08;;;;;;;6.82;3.55;;;13.00;99.90;;;;;;5089735;28;20105;-53
2021/05/08 08:39:34;;;;;;;9.45;4.07;;;13.10;99.90;;;;;;5087714;28;20043;-55
2021/05/08 08:42:00;;;;;;;5.70;3.08;;;13.20;99.90;;;;;;5088161;28;20032;-56
2021/05/08 08:44:26;;;;;;;10.10;3.47;;;13.40;99.90;;;;;;5088846;28;20032;-55
2021/05/08 08:46:52;;;;;;;6.93;4.20;;;13.60;99.90;;;;;;5088073;28;20539;-56
2021/05/08 08:49:18;;;;;;;8.73;3.40;;;13.80;99.90;;;;;;5088883;28;20490;-56
2021/05/08 08:51:44;;;;;;;9.13;3.75;;;14.00;99.90;;;;;;5087308;28;20732;-52
2021/05/08 08:54:10;;;;;;;6.93;3.80;;;14.10;99.90;;;;;;5081854;28;20111;-55
2021/05/08 08:56:39;;;;;;;6.40;3.25;;;14.10;99.90;;;;;;5085781;28;20119;-52
2021/05/08 08:59:16;;;;;;;4.57;2.72;;;14.10;99.90;;;;;;5087263;28;20034;-57
2021/05/08 09:01:43;;;;;;;8.88;3.45;;;14.10;99.90;;;;;;5081282;28;20025;-56
2021/05/08 09:04:10;;;;;;;6.93;3.25;;;14.10;99.90;;;;;;5084914;28;20035;-56
2021/05/08 09:06:38;;;;;;;16.33;3.25;;;14.20;99.90;;;;;;5083531;28;20028;-52
2021/05/08 09:09:04;;;;;;;12.07;3.22;;;14.20;99.90;;;;;;5085338;28;20573;-55
2021/05/08 09:11:29;;;;;;;89.65;9.52;;;14.30;99.90;;;;;;5087782;28;20111;-52
2021/05/08 09:14:15;;;;;;;8.13;2.92;;;14.40;99.90;;;;;;5089431;28;20115;-55
2021/05/08 09:17:08;;;;;;;6.90;3.17;;;14.50;99.90;;;;;;5086830;28;20081;-55
2021/05/08 09:19:39;;;;;;;14.30;3.35;;;14.60;99.90;;;;;;5091217;28;20036;-56
2021/05/08 09:22:36;;;;;;;79.90;9.43;;;14.80;99.90;;;;;;5089629;28;20032;-56
2021/05/08 09:25:16;;;;;;;16.83;3.63;;;15.00;99.90;;;;;;5091225;28;20028;-54
2021/05/08 09:27:53;;;;;;;11.80;2.80;;;15.20;99.90;;;;;;5093778;28;20035;-57
2021/05/08 09:30:24;;;;;;;6.72;2.75;;;15.50;99.90;;;;;;5092102;28;20116;-52
2021/05/08 09:32:56;;;;;;;7.40;3.05;;;15.70;99.90;;;;;;5093262;28;20039;-53
2021/05/08 09:35:24;;;;;;;9.00;2.80;;;15.90;99.90;;;;;;5091304;28;20541;-55
2021/05/08 09:37:52;;;;;;;5.15;3.00;;;16.00;99.90;;;;;;5092967;28;20024;-52
2021/05/08 09:40:26;;;;;;;6.75;2.95;;;16.10;99.90;;;;;;5091922;28;20473;-56
2021/05/08 09:42:57;;;;;;;16.80;3.05;;;16.10;99.90;;;;;;5088535;28;20028;-55
2021/05/08 09:45:24;;;;;;;6.80;2.50;;;16.10;99.90;;;;;;5092845;28;20073;-54
2021/05/08 09:47:51;;;;;;;4.88;2.60;;;16.00;99.90;;;;;;5092009;28;20512;-53
2021/05/08 09:50:24;;;;;;;8.07;2.10;;;16.00;99.90;;;;;;5090700;28;20032;-56
2021/05/08 09:52:55;;;;;;;8.40;2.60;;;16.20;99.90;;;;;;5090579;28;20088;-56
2021/05/08 09:55:23;;;;;;;5.07;2.65;;;16.40;99.50;;;;;;5092297;28;20020;-53
2021/05/08 09:57:56;;;;;;;7.38;2.90;;;16.50;99.90;;;;;;5089601;28;20024;-57
2021/05/08 10:00:32;;;;;;;4.22;1.95;;;16.70;99.90;;;;;;5090283;28;20024;-53
2021/05/08 10:03:03;;;;;;;9.43;4.38;;;16.80;96.30;;;;;;5087705;28;20087;-54
2021/05/08 10:05:29;;;;;;;3.45;2.13;;;16.90;97.90;;;;;;5087926;28;20047;-52
2021/05/08 10:07:55;;;;;;;7.45;1.90;;;16.70;95.60;;;;;;5090790;28;20498;-56
2021/05/08 10:10:21;;;;;;;2.83;1.85;;;16.80;96.40;;;;;;5089149;28;20542;-51
2021/05/08 10:12:47;;;;;;;8.25;1.80;;;17.00;95.50;;;;;;5087725;28;20111;-56
2021/05/08 10:15:13;;;;;;;11.73;2.20;;;17.20;95.30;;;;;;5092916;28;20062;-54
2021/05/08 10:17:40;;;;;;;4.18;1.52;;;17.30;95.40;;;;;;5092887;28;20114;-53
2021/05/08 10:20:11;;;;;;;4.10;1.80;;;17.30;95.00;;;;;;5091532;28;20031;-55
2021/05/08 10:22:42;;;;;;;2.75;1.55;;;17.30;94.40;;;;;;5094464;28;20060;-55
2021/05/08 10:25:08;;;;;;;3.15;1.50;;;17.10;92.90;;;;;;5094051;28;20052;-56
2021/05/08 10:27:34;;;;;;;5.40;1.85;;;17.10;93.20;;;;;;5091156;28;20036;-53
2021/05/08 10:30:00;;;;;;;5.30;1.90;;;17.30;93.60;;;;;;5090342;28;20033;-56
2021/05/08 10:32:26;;;;;;;4.85;1.60;;;17.40;92.10;;;;;;5085046;28;20032;-53
2021/05/08 10:34:59;;;;;;;4.40;2.03;;;17.40;91.90;;;;;;5088997;28;20439;-56
2021/05/08 10:37:26;;;;;;;4.13;2.53;;;17.30;93.20;;;;;;5090707;28;20156;-57
2021/05/08 10:40:06;;;;;;;4.82;1.60;;;17.30;93.40;;;;;;5087595;28;20024;-52
2021/05/08 10:42:44;;;;;;;6.32;1.48;;;17.30;92.00;;;;;;5092362;28;20058;-55
2021/05/08 10:45:14;;;;;;;10.38;2.17;;;17.30;91.50;;;;;;5091764;28;20497;-54
2021/05/08 10:47:55;;;;;;;5.07;1.70;;;17.40;92.20;;;;;;5091044;28;20028;-56
2021/05/08 10:50:38;;;;;;;4.72;1.65;;;17.30;91.50;;;;;;5091393;28;20020;-58
2021/05/08 10:53:11;;;;;;;4.03;1.40;;;17.40;92.80;;;;;;5092444;28;20072;-58
2021/05/08 10:55:42;;;;;;;3.65;1.38;;;17.60;91.80;;;;;;5092674;28;20119;-57
2021/05/08 10:58:14;;;;;;;6.57;1.75;;;17.50;92.60;;;;;;5097189;28;20031;-57
2021/05/08 11:00:47;;;;;;;3.50;1.60;;;17.50;92.80;;;;;;5087451;28;20107;-56
2021/05/08 11:03:14;;;;;;;11.70;2.58;;;17.40;91.40;;;;;;5086293;28;20050;-56
2021/05/08 11:06:06;;;;;;;8.10;1.40;;;17.50;93.10;;;;;;5092403;28;20052;-57
2021/05/08 11:08:34;;;;;;;3.08;1.52;;;17.40;92.30;;;;;;5089639;28;20119;-52
2021/05/08 11:11:12;;;;;;;5.63;1.83;;;17.20;91.60;;;;;;5094069;28;20725;-52
2021/05/08 11:13:43;;;;;;;3.95;1.60;;;17.10;92.00;;;;;;5091967;28;20582;-54
2021/05/08 11:16:12;;;;;;;2.33;1.30;;;17.00;92.40;;;;;;5092455;28;20031;-54
2021/05/08 11:18:43;;;;;;;2.28;1.40;;;16.80;93.60;;;;;;5092486;28;20031;-57
2021/05/08 11:21:08;;;;;;;4.53;1.38;;;16.80;92.70;;;;;;5090959;28;20414;-57
2021/05/08 11:23:54;;;;;;;4.85;1.55;;;16.70;92.70;;;;;;5092109;28;20108;-52
2021/05/08 11:26:23;;;;;;;2.88;0.90;;;16.70;93.20;;;;;;5085923;28;20117;-56
2021/05/08 11:29:04;;;;;;;4.82;1.10;;;16.60;92.40;;;;;;5089389;28;20032;-59
2021/05/08 11:31:31;;;;;;;4.32;1.00;;;16.70;93.90;;;;;;5110451;22;20048;-50
2021/05/08 11:34:10;;;;;;;2.95;1.05;;;16.60;94.60;;;;;;5064821;28;20395;-50
2021/05/08 11:36:48;;;;;;;4.22;1.00;;;16.50;94.30;;;;;;5068253;28;20039;-52
2021/05/08 11:39:23;;;;;;;3.33;1.40;;;16.10;95.70;;;;;;5068539;28;20032;-52
2021/05/08 11:41:59;;;;;;;6.07;1.38;;;15.80;97.10;;;;;;5067588;28;20025;-49
2021/05/08 11:44:32;;;;;;;1.15;0.90;;;15.70;98.20;;;;;;5060770;28;20021;-52
2021/05/08 11:50:14;;;;;;;5.05;1.00;;;15.60;99.90;;;;;;5061494;28;20048;-55
2021/05/08 11:52:44;;;;;;;3.58;0.90;;;15.80;99.90;;;;;;5062619;28;20037;-52
2021/05/08 11:55:13;;;;;;;2.45;0.90;;;16.00;99.90;;;;;;5062318;28;20103;-52
2021/05/08 11:57:41;;;;;;;7.55;1.02;;;16.00;99.90;;;;;;5055926;28;20039;-53
2021/05/08 12:00:24;;;;;;;2.70;1.08;;;16.00;99.90;;;;;;5053345;28;20518;-52
2021/05/08 12:02:51;;;;;;;3.47;0.90;;;16.10;99.90;;;;;;5057544;28;20020;-52
2021/05/08 12:05:22;;;;;;;2.55;1.00;;;16.20;99.90;;;;;;5063664;28;20448;-50
2021/05/08 12:07:49;;;;;;;5.63;1.48;;;16.40;99.90;;;;;;5060814;28;20371;-51
2021/05/08 12:10:21;;;;;;;2.30;0.90;;;16.60;99.90;;;;;;5060926;28;20036;-52
2021/05/08 12:12:51;;;;;;;2.85;0.95;;;16.70;99.90;;;;;;5058848;28;20111;-51
2021/05/08 12:15:24;;;;;;;4.20;0.90;;;16.80;99.90;;;;;;5056786;28;20025;-55
2021/05/08 12:17:51;;;;;;;2.40;1.20;;;16.90;99.90;;;;;;5059066;28;20032;-54
2021/05/08 12:20:23;;;;;;;5.03;1.55;;;16.90;99.90;;;;;;5058224;28;20094;-53
2021/05/08 12:22:50;;;;;;;4.00;1.23;;;17.00;99.90;;;;;;5066154;28;20020;-49
2021/05/08 12:25:21;;;;;;;4.03;1.25;;;17.10;99.50;;;;;;5056854;28;20032;-51
2021/05/08 12:27:47;;;;;;;3.55;1.23;;;17.10;99.90;;;;;;5061723;28;20081;-54
2021/05/08 12:30:14;;;;;;;7.50;1.40;;;17.20;99.90;;;;;;5053918;28;20386;-53
2021/05/08 12:32:52;;;;;;;4.55;0.90;;;17.00;98.20;;;;;;5072919;28;20468;-51
2021/05/08 12:35:20;;;;;;;29.55;3.72;;;16.90;99.00;;;;;;5071730;28;20702;-52
2021/05/08 12:37:46;;;;;;;13.43;1.70;;;17.00;99.90;;;;;;5078704;28;20486;-50
2021/05/08 12:40:13;;;;;;;19.67;2.45;;;16.70;99.90;;;;;;5078221;28;20036;-50
2021/05/08 12:42:45;;;;;;;2.28;1.05;;;16.60;99.90;;;;;;5077318;28;20036;-51
2021/05/08 12:45:11;;;;;;;78.15;5.38;;;16.40;99.90;;;;;;5079239;28;20386;-53